Time;durP1;ratioP1;P1;durP2;ratioP2;P2;SDS_P1;SDS_P2;PMS_P1;PMS_P2;Temp;Humidity;BMP_temperature;BMP_pressure;BME280_temperature;BME280_humidity;BME280_pressure;Samples;Min_cycle;Max_cycle;Signal;HPM_P1;HPM_P2
2024/01/24 00:00:46;;;;;;;4.07;1.30;;;10.20;99.90;;;;;;5068798;28;20204;-84
2024/01/24 00:03:12;;;;;;;4.53;1.27;;;10.50;99.90;;;;;;5070361;28;20283;-85
2024/01/24 00:05:37;;;;;;;3.23;1.30;;;10.50;99.90;;;;;;5054320;28;20203;-85
2024/01/24 00:08:03;;;;;;;4.00;1.10;;;10.70;99.90;;;;;;5052664;28;20194;-85
2024/01/24 00:10:29;;;;;;;1.83;1.00;;;10.30;99.90;;;;;;5057080;28;20188;-85
2024/01/24 00:12:55;;;;;;;1.83;1.10;;;10.20;99.90;;;;;;5051802;28;20413;-85
2024/01/24 00:15:20;;;;;;;3.17;1.40;;;10.90;99.90;;;;;;5053180;28;20212;-85
2024/01/24 00:17:46;;;;;;;4.67;2.17;;;10.80;99.90;;;;;;5061342;28;20182;-85
2024/01/24 00:20:12;;;;;;;3.83;1.33;;;10.90;99.90;;;;;;5054422;28;20192;-85
2024/01/24 00:22:38;;;;;;;2.70;1.30;;;10.60;99.90;;;;;;5050857;28;20198;-85
2024/01/24 00:25:04;;;;;;;5.77;1.50;;;10.80;99.90;;;;;;5057203;28;20219;-85
2024/01/24 00:27:29;;;;;;;3.30;1.30;;;10.80;99.90;;;;;;5055751;28;20203;-85
2024/01/24 00:29:55;;;;;;;3.10;1.23;;;10.90;99.90;;;;;;5055858;28;20668;-85
2024/01/24 00:32:21;;;;;;;1.83;1.00;;;10.70;99.90;;;;;;5056264;28;20276;-85
2024/01/24 00:34:47;;;;;;;3.13;0.98;;;10.90;99.90;;;;;;5056757;28;20261;-85
2024/01/24 00:37:12;;;;;;;3.33;1.03;;;11.30;99.90;;;;;;5058625;28;20209;-85
2024/01/24 00:39:38;;;;;;;6.23;1.40;;;11.20;99.90;;;;;;5052543;28;20184;-85
2024/01/24 00:42:04;;;;;;;4.10;1.52;;;10.80;99.90;;;;;;5054477;28;20181;-85
2024/01/24 00:44:30;;;;;;;4.05;1.58;;;10.90;99.90;;;;;;5052260;28;20238;-86
2024/01/24 00:46:55;;;;;;;1.53;0.97;;;10.90;99.90;;;;;;5054775;28;20192;-86
2024/01/24 00:49:22;;;;;;;1.83;1.00;;;11.20;99.90;;;;;;5052928;28;20196;-85
2024/01/24 00:51:48;;;;;;;1.77;1.00;;;11.30;99.90;;;;;;5048808;28;20274;-86
2024/01/24 00:54:14;;;;;;;6.17;0.90;;;11.00;99.90;;;;;;5047817;28;20228;-86
2024/01/24 00:56:40;;;;;;;1.40;0.83;;;10.80;99.90;;;;;;5057584;28;20210;-86
2024/01/24 00:59:06;;;;;;;4.28;1.60;;;11.20;99.90;;;;;;5054510;28;20923;-86
2024/01/24 01:01:31;;;;;;;3.30;1.20;;;11.40;99.90;;;;;;5054251;28;20196;-85
2024/01/24 01:03:57;;;;;;;1.53;1.20;;;10.60;99.90;;;;;;5055457;28;20182;-86
2024/01/24 01:06:22;;;;;;;2.07;0.87;;;11.00;99.90;;;;;;5054995;28;20295;-85
2024/01/24 01:08:48;;;;;;;3.40;1.10;;;10.90;99.90;;;;;;5048073;28;20272;-85
2024/01/24 01:11:14;;;;;;;2.83;1.10;;;11.40;99.90;;;;;;5051083;28;20196;-84
2024/01/24 01:13:39;;;;;;;5.03;1.10;;;10.90;99.90;;;;;;5050976;28;20877;-85
2024/01/24 01:16:05;;;;;;;3.10;1.10;;;11.30;99.90;;;;;;5039437;28;20227;-85
2024/01/24 01:18:30;;;;;;;2.07;0.80;;;11.00;99.90;;;;;;5054914;28;20188;-85
2024/01/24 01:20:56;;;;;;;1.73;0.90;;;11.20;99.90;;;;;;5058609;28;20786;-85
2024/01/24 01:23:21;;;;;;;2.27;0.90;;;11.40;99.90;;;;;;5070545;28;20199;-85
2024/01/24 01:25:47;;;;;;;1.87;0.87;;;11.20;99.90;;;;;;5066723;28;20253;-85
2024/01/24 01:28:13;;;;;;;3.40;1.13;;;11.30;99.90;;;;;;5061240;28;20176;-85
2024/01/24 01:30:38;;;;;;;1.80;0.90;;;11.30;99.90;;;;;;5067154;28;20189;-85
2024/01/24 01:33:04;;;;;;;2.70;1.23;;;11.60;99.90;;;;;;5065751;28;20199;-85
2024/01/24 01:35:29;;;;;;;4.97;1.33;;;11.70;99.90;;;;;;5071883;28;20693;-86
2024/01/24 01:37:55;;;;;;;4.50;1.43;;;11.60;99.90;;;;;;5048889;28;20227;-85
2024/01/24 01:40:21;;;;;;;4.57;1.63;;;11.40;99.90;;;;;;5055693;28;20439;-85
2024/01/24 01:42:46;;;;;;;2.07;0.80;;;11.10;99.90;;;;;;5054422;28;20185;-85
2024/01/24 01:45:12;;;;;;;2.80;1.57;;;11.60;99.90;;;;;;5053910;28;20686;-85
2024/01/24 01:47:39;;;;;;;3.93;1.43;;;11.00;99.90;;;;;;5066020;28;20174;-85
2024/01/24 01:50:16;;;;;;;4.40;1.25;;;10.90;99.90;;;;;;5066975;28;21644;-85
2024/01/24 01:52:42;;;;;;;3.55;1.35;;;11.20;99.90;;;;;;5070501;28;20282;-85
2024/01/24 01:55:10;;;;;;;1.70;0.70;;;11.10;99.90;;;;;;5074789;28;20200;-85
2024/01/24 01:57:37;;;;;;;2.58;1.98;;;11.40;99.90;;;;;;5069347;28;20196;-85
2024/01/24 02:00:05;;;;;;;2.30;1.25;;;10.90;99.90;;;;;;5059368;28;20215;-85
2024/01/24 02:02:31;;;;;;;3.58;1.15;;;11.10;99.90;;;;;;5059995;28;20191;-85
2024/01/24 02:04:57;;;;;;;2.80;1.30;;;11.50;99.90;;;;;;5068887;28;20196;-84
2024/01/24 02:07:23;;;;;;;3.60;1.00;;;10.70;99.90;;;;;;5070435;28;20442;-85
2024/01/24 02:09:49;;;;;;;2.60;0.83;;;11.10;99.90;;;;;;5049477;28;20196;-85
2024/01/24 02:12:14;;;;;;;1.97;1.13;;;10.90;99.90;;;;;;5055347;28;20242;-85
2024/01/24 02:14:40;;;;;;;3.20;1.10;;;11.70;99.90;;;;;;5053411;28;20208;-85
2024/01/24 02:17:05;;;;;;;2.97;0.87;;;11.20;99.90;;;;;;5047692;28;20637;-85
2024/01/24 02:19:31;;;;;;;2.90;0.93;;;11.60;99.90;;;;;;5063667;28;20206;-85
2024/01/24 02:21:57;;;;;;;2.43;1.23;;;11.90;99.90;;;;;;5063760;28;20591;-85
2024/01/24 02:24:22;;;;;;;2.70;1.00;;;11.30;99.90;;;;;;5054251;28;20573;-85
2024/01/24 02:26:48;;;;;;;4.63;1.23;;;11.50;99.90;;;;;;5057254;28;20188;-85
2024/01/24 02:29:14;;;;;;;2.67;0.98;;;11.10;99.90;;;;;;5052621;28;20234;-85
2024/01/24 02:31:39;;;;;;;1.77;0.97;;;11.20;99.90;;;;;;5056372;28;20193;-85
2024/01/24 02:34:05;;;;;;;2.27;0.80;;;11.10;99.90;;;;;;5053984;28;20658;-85
2024/01/24 02:36:30;;;;;;;3.80;1.20;;;11.20;99.90;;;;;;5053672;28;20215;-85
2024/01/24 02:38:56;;;;;;;1.70;1.03;;;11.40;99.90;;;;;;5062595;28;20226;-85
2024/01/24 02:41:23;;;;;;;3.23;1.10;;;11.40;99.90;;;;;;5054111;28;20282;-85
2024/01/24 02:43:48;;;;;;;2.40;1.13;;;11.40;99.90;;;;;;5046585;28;20212;-85
2024/01/24 02:46:14;;;;;;;2.37;1.40;;;11.00;99.90;;;;;;5052166;28;20205;-85
2024/01/24 02:48:41;;;;;;;1.67;0.97;;;11.20;99.90;;;;;;5071607;28;20204;-85
2024/01/24 02:51:06;;;;;;;1.20;1.00;;;11.40;99.90;;;;;;5069280;28;20183;-85
2024/01/24 02:53:32;;;;;;;2.43;1.60;;;11.00;99.90;;;;;;5058903;28;20200;-85
2024/01/24 02:55:57;;;;;;;2.60;1.20;;;11.20;99.90;;;;;;5057661;28;20602;-84
2024/01/24 02:58:23;;;;;;;1.47;0.90;;;11.10;99.90;;;;;;5055888;28;20242;-85
2024/01/24 03:00:48;;;;;;;2.73;1.40;;;11.20;99.90;;;;;;5055977;28;20766;-85
2024/01/24 03:03:14;;;;;;;3.03;1.13;;;11.40;99.90;;;;;;5050582;28;20186;-85
2024/01/24 03:05:39;;;;;;;2.77;1.13;;;11.20;99.90;;;;;;5055033;28;20217;-86
2024/01/24 03:08:05;;;;;;;1.33;0.87;;;11.70;99.90;;;;;;5051587;28;20208;-86
2024/01/24 03:10:31;;;;;;;1.73;1.20;;;11.20;99.90;;;;;;5052933;28;20449;-85
2024/01/24 03:12:56;;;;;;;2.73;0.80;;;10.90;99.90;;;;;;5056416;28;20447;-85
2024/01/24 03:15:22;;;;;;;1.50;0.77;;;11.20;99.90;;;;;;5055191;28;21552;-85
2024/01/24 03:17:47;;;;;;;1.33;0.93;;;11.60;99.90;;;;;;5052934;28;20188;-86
2024/01/24 03:20:14;;;;;;;1.20;0.70;;;11.30;99.90;;;;;;5049964;28;20204;-85
2024/01/24 03:22:40;;;;;;;3.40;3.03;;;11.30;99.90;;;;;;5054425;28;20181;-85
2024/01/24 03:25:06;;;;;;;1.38;0.68;;;11.70;99.90;;;;;;5051657;28;20208;-85
2024/01/24 03:27:32;;;;;;;1.25;1.10;;;11.50;99.90;;;;;;5053906;28;20527;-85
2024/01/24 03:29:57;;;;;;;2.00;0.90;;;12.00;99.90;;;;;;5049865;28;20235;-85
2024/01/24 03:32:23;;;;;;;2.87;1.10;;;12.10;99.90;;;;;;5048613;28;20242;-85
2024/01/24 03:34:56;;;;;;;3.03;1.00;;;11.80;99.90;;;;;;5048715;28;20749;-86
2024/01/24 03:37:22;;;;;;;1.05;0.80;;;12.00;99.90;;;;;;5049939;28;20235;-86
2024/01/24 03:39:47;;;;;;;2.20;1.73;;;11.60;99.90;;;;;;5049001;28;20174;-85
2024/01/24 03:42:13;;;;;;;2.73;0.87;;;11.80;99.90;;;;;;5047494;28;20268;-85
2024/01/24 03:44:39;;;;;;;4.50;1.23;;;11.80;99.90;;;;;;5052845;28;20205;-85
2024/01/24 03:47:05;;;;;;;2.40;1.03;;;12.20;99.90;;;;;;5052697;28;20201;-86
2024/01/24 03:49:30;;;;;;;1.47;1.00;;;11.90;99.90;;;;;;5053933;28;20522;-85
2024/01/24 03:51:57;;;;;;;3.90;0.90;;;11.80;99.90;;;;;;5055049;23;20603;-89
2024/01/24 03:54:24;;;;;;;2.13;0.95;;;11.80;99.90;;;;;;5017663;28;20297;-89
2024/01/24 03:56:49;;;;;;;1.58;1.00;;;11.90;99.90;;;;;;5034624;28;20248;-89
2024/01/24 03:59:15;;;;;;;2.17;1.07;;;12.40;99.90;;;;;;5033583;28;20182;-85
2024/01/24 04:01:41;;;;;;;5.57;1.10;;;12.00;99.90;;;;;;5036191;28;20190;-84
2024/01/24 04:04:07;;;;;;;2.87;1.10;;;11.90;99.90;;;;;;5029230;28;20440;-84
2024/01/24 04:06:33;;;;;;;4.25;1.20;;;12.10;99.90;;;;;;5037759;28;20182;-85
2024/01/24 04:09:15;;;;;;;2.20;0.80;;;12.20;99.90;;;;;;5020951;28;20265;-84
2024/01/24 04:11:41;;;;;;;3.03;1.25;;;11.80;99.90;;;;;;5051927;28;20197;-83
2024/01/24 04:14:07;;;;;;;1.63;0.80;;;;;;;;;;5032277;28;20274;-84
2024/01/24 04:16:35;;;;;;;1.70;0.95;;;12.00;99.90;;;;;;5027676;28;20213;-83
2024/01/24 04:19:00;;;;;;;2.45;1.10;;;12.00;99.90;;;;;;5026050;28;20243;-84
2024/01/24 04:21:27;;;;;;;3.50;0.90;;;12.40;99.90;;;;;;5030747;28;20170;-85
2024/01/24 04:23:53;;;;;;;2.47;1.00;;;12.10;99.90;;;;;;5024969;28;20269;-85
2024/01/24 04:26:22;;;;;;;2.90;1.10;;;11.90;99.90;;;;;;5027624;28;20252;-85
2024/01/24 04:28:48;;;;;;;3.45;1.00;;;12.50;99.90;;;;;;5026605;28;20187;-85
2024/01/24 04:31:14;;;;;;;3.65;1.00;;;12.20;99.90;;;;;;5026841;28;20209;-84
2024/01/24 04:33:39;;;;;;;1.90;1.30;;;12.40;99.90;;;;;;5033400;28;20178;-85
2024/01/24 04:36:06;;;;;;;2.40;1.10;;;12.60;99.90;;;;;;5031529;28;20209;-85
2024/01/24 04:38:31;;;;;;;1.23;0.95;;;12.30;99.90;;;;;;5034499;28;20232;-85
2024/01/24 04:40:57;;;;;;;1.60;1.20;;;12.50;99.90;;;;;;5031120;28;20186;-86
2024/01/24 04:43:22;;;;;;;1.00;0.80;;;12.70;99.90;;;;;;5033304;28;20174;-85
2024/01/24 04:45:48;;;;;;;2.40;1.30;;;12.30;99.90;;;;;;5033971;28;20202;-85
2024/01/24 04:48:14;;;;;;;1.80;0.90;;;12.40;99.90;;;;;;5032067;28;20250;-85
2024/01/24 04:50:40;;;;;;;3.73;1.50;;;12.60;99.90;;;;;;5030937;28;20558;-85
2024/01/24 04:53:05;;;;;;;2.17;1.23;;;12.20;99.90;;;;;;5035376;28;20455;-84
2024/01/24 04:55:31;;;;;;;1.57;1.17;;;12.80;99.90;;;;;;5031869;28;20209;-85
2024/01/24 04:57:56;;;;;;;3.13;1.13;;;12.90;99.90;;;;;;5029467;28;20232;-85
2024/01/24 05:00:22;;;;;;;4.13;1.47;;;12.40;99.90;;;;;;5029837;28;20655;-85
2024/01/24 05:02:47;;;;;;;2.70;1.97;;;12.70;99.90;;;;;;5031516;28;20191;-84
2024/01/24 05:05:13;;;;;;;1.63;1.10;;;12.70;99.90;;;;;;5033603;28;20221;-86
2024/01/24 05:07:39;;;;;;;1.47;1.20;;;12.40;99.90;;;;;;5030136;28;20217;-84
2024/01/24 05:10:05;;;;;;;2.35;1.65;;;12.40;99.90;;;;;;5027974;28;20205;-85
2024/01/24 05:12:31;;;;;;;1.48;0.90;;;12.50;99.90;;;;;;5026496;28;20190;-85
2024/01/24 05:14:57;;;;;;;4.33;1.90;;;12.80;99.90;;;;;;5030728;28;20198;-84
2024/01/24 05:17:22;;;;;;;2.63;1.20;;;12.80;99.90;;;;;;5027171;28;20469;-85
2024/01/24 05:19:48;;;;;;;3.37;1.30;;;12.50;99.90;;;;;;5033321;28;20463;-84
2024/01/24 05:22:14;;;;;;;2.33;1.57;;;12.90;99.90;;;;;;5026938;28;20265;-85
2024/01/24 05:24:44;;;;;;;2.37;1.40;;;12.90;99.90;;;;;;5029424;28;20539;-85
2024/01/24 05:27:10;;;;;;;2.58;1.52;;;12.50;99.90;;;;;;5023805;28;20190;-86
2024/01/24 05:29:35;;;;;;;3.90;1.90;;;12.10;99.90;;;;;;5024891;28;20217;-85
2024/01/24 05:32:01;;;;;;;2.53;1.40;;;12.50;99.90;;;;;;5027036;28;20190;-85
2024/01/24 05:34:26;;;;;;;3.03;1.20;;;12.50;99.90;;;;;;5022737;28;20252;-86
2024/01/24 05:36:53;;;;;;;3.63;1.30;;;12.50;99.90;;;;;;5032469;28;20198;-85
2024/01/24 05:39:19;;;;;;;1.73;1.13;;;12.20;99.90;;;;;;5028674;28;20222;-84
2024/01/24 05:41:45;;;;;;;2.08;1.45;;;12.40;99.90;;;;;;5030636;28;20183;-84
2024/01/24 05:44:10;;;;;;;1.50;1.20;;;12.70;99.90;;;;;;5045342;28;20198;-84
2024/01/24 05:46:36;;;;;;;3.73;1.50;;;12.50;99.90;;;;;;5043458;28;20282;-85
2024/01/24 05:49:01;;;;;;;1.70;1.20;;;13.10;99.90;;;;;;5031389;28;20278;-86
2024/01/24 05:51:27;;;;;;;4.40;1.30;;;12.90;99.90;;;;;;5029832;28;20194;-86
2024/01/24 05:53:52;;;;;;;2.90;1.23;;;12.70;99.90;;;;;;5027395;28;20637;-85
2024/01/24 05:56:18;;;;;;;3.87;1.20;;;12.80;99.90;;;;;;5027296;28;20215;-86
2024/01/24 05:58:43;;;;;;;2.67;1.60;;;12.90;99.90;;;;;;5026397;28;20186;-87
2024/01/24 06:01:09;;;;;;;4.20;1.03;;;12.90;99.90;;;;;;5031305;28;20195;-85
2024/01/24 06:03:34;;;;;;;1.60;1.00;;;12.90;99.90;;;;;;5028216;28;20183;-86
2024/01/24 06:06:01;;;;;;;1.70;1.13;;;12.80;99.90;;;;;;5029641;28;20674;-84
2024/01/24 06:08:27;;;;;;;1.90;1.20;;;12.80;99.90;;;;;;5033120;28;20193;-84
2024/01/24 06:10:52;;;;;;;2.90;1.37;;;12.80;99.90;;;;;;5022828;28;20215;-84
2024/01/24 06:13:18;;;;;;;2.33;0.87;;;13.20;99.90;;;;;;5024549;28;20472;-84
2024/01/24 06:15:43;;;;;;;1.30;1.03;;;13.00;99.90;;;;;;5022378;28;20256;-86
2024/01/24 06:18:09;;;;;;;1.97;1.10;;;13.00;99.90;;;;;;5028351;28;20185;-86
2024/01/24 06:20:34;;;;;;;1.73;1.00;;;13.60;99.90;;;;;;5022281;28;20748;-85
2024/01/24 06:23:00;;;;;;;4.27;1.13;;;13.00;99.90;;;;;;5023231;28;20931;-84
2024/01/24 06:25:25;;;;;;;1.87;0.80;;;12.90;99.90;;;;;;5027571;28;20210;-86
2024/01/24 06:27:51;;;;;;;1.13;1.00;;;13.00;99.90;;;;;;5027025;28;20628;-86
2024/01/24 06:30:17;;;;;;;0.90;0.80;;;12.80;99.90;;;;;;5026294;28;20623;-86
2024/01/24 06:32:42;;;;;;;2.90;1.17;;;13.00;99.90;;;;;;5023755;28;20198;-87
2024/01/24 06:35:08;;;;;;;1.40;1.13;;;13.00;99.90;;;;;;5016762;28;20224;-87
2024/01/24 06:37:33;;;;;;;1.43;1.10;;;13.10;99.90;;;;;;5021170;28;20213;-85
2024/01/24 06:40:00;;;;;;;1.00;0.80;;;13.30;99.90;;;;;;5027994;28;20988;-85
2024/01/24 06:42:25;;;;;;;2.92;1.13;;;13.40;99.90;;;;;;5017898;28;20178;-85
2024/01/24 06:44:51;;;;;;;1.73;1.20;;;13.20;99.90;;;;;;5026684;28;20209;-85
2024/01/24 06:47:16;;;;;;;1.77;0.90;;;12.70;99.90;;;;;;5022251;28;20182;-84
2024/01/24 06:49:44;;;;;;;2.20;1.20;;;13.30;99.90;;;;;;5027907;28;20273;-84
2024/01/24 06:52:10;;;;;;;1.58;0.80;;;13.00;99.90;;;;;;5025962;28;20735;-86
2024/01/24 06:54:35;;;;;;;1.70;1.20;;;13.30;99.90;;;;;;5021374;28;20227;-86
2024/01/24 06:57:03;;;;;;;1.90;1.00;;;13.00;99.90;;;;;;5025596;28;20214;-86
2024/01/24 06:59:32;;;;;;;1.73;1.00;;;13.00;99.90;;;;;;5020292;28;20273;-88
2024/01/24 07:01:59;;;;;;;1.00;0.88;;;13.00;99.90;;;;;;5024039;28;20209;-86
2024/01/24 07:04:25;;;;;;;1.50;1.08;;;13.00;99.90;;;;;;5024149;28;20632;-91
2024/01/24 07:06:50;;;;;;;1.45;0.98;;;13.10;99.90;;;;;;5005612;28;20190;-87
2024/01/24 07:09:16;;;;;;;1.20;1.00;;;13.10;99.90;;;;;;5028198;28;20229;-85
2024/01/24 07:11:41;;;;;;;2.17;1.00;;;12.90;99.90;;;;;;5021361;28;20194;-89
2024/01/24 07:16:44;;;;;;;1.05;0.90;;;13.30;99.90;;;;;;5151469;22;20224;-88
2024/01/24 07:19:10;;;;;;;2.05;1.30;;;13.70;99.90;;;;;;5037787;28;20552;-87
2024/01/24 07:21:36;;;;;;;1.30;1.00;;;;;;;;;;5029012;28;20200;-86
2024/01/24 07:24:02;;;;;;;0.85;0.80;;;12.90;99.90;;;;;;5028850;28;20186;-87
2024/01/24 07:26:31;;;;;;;2.95;1.20;;;13.00;99.90;;;;;;5031773;28;20177;-88
2024/01/24 07:28:57;;;;;;;1.83;1.02;;;14.70;99.90;;;;;;5032911;28;20182;-88
2024/01/24 07:31:23;;;;;;;1.67;1.00;;;13.80;99.90;;;;;;5037485;28;20196;-88
2024/01/24 07:33:49;;;;;;;1.67;1.00;;;;;;;;;;5032834;28;20258;-85
2024/01/24 07:36:14;;;;;;;1.40;0.90;;;13.00;99.90;;;;;;5032694;28;20217;-86
2024/01/24 07:38:40;;;;;;;2.90;1.27;;;12.50;99.90;;;;;;5032246;28;20192;-88
2024/01/24 07:41:07;;;;;;;1.70;1.07;;;13.40;99.90;;;;;;5031798;28;20892;-87
2024/01/24 07:43:33;;;;;;;2.33;1.70;;;13.20;99.90;;;;;;5036427;28;20181;-86
2024/01/24 07:45:58;;;;;;;1.70;1.20;;;13.30;99.90;;;;;;5023929;28;20568;-86
2024/01/24 07:48:24;;;;;;;3.20;1.00;;;13.40;99.90;;;;;;5032214;28;20206;-86
2024/01/24 07:50:51;;;;;;;1.33;0.87;;;13.20;99.90;;;;;;5031267;28;20288;-83
2024/01/24 07:53:16;;;;;;;1.65;0.70;;;13.20;99.90;;;;;;5021330;28;20717;-83
2024/01/24 07:55:42;;;;;;;1.00;0.80;;;13.40;99.90;;;;;;5027348;28;20210;-85
2024/01/24 07:58:08;;;;;;;1.30;0.90;;;13.60;99.90;;;;;;5020805;28;20459;-83
2024/01/24 08:00:34;;;;;;;1.33;1.23;;;13.20;99.90;;;;;;5035739;28;20173;-83
2024/01/24 08:03:00;;;;;;;1.98;1.08;;;13.90;99.90;;;;;;5047308;28;20178;-82
2024/01/24 08:05:32;;;;;;;1.90;0.85;;;13.40;99.90;;;;;;5033221;28;20768;-91
2024/01/24 08:07:58;;;;;;;2.10;0.90;;;13.70;99.90;;;;;;5053085;28;20549;-89
2024/01/24 08:10:24;;;;;;;2.20;1.10;;;13.70;99.90;;;;;;5004663;28;20187;-87
2024/01/24 08:12:49;;;;;;;1.27;1.07;;;13.50;99.90;;;;;;5030008;28;20199;-88
2024/01/24 08:15:15;;;;;;;1.17;0.67;;;13.70;99.90;;;;;;5024191;28;20205;-88
2024/01/24 08:17:40;;;;;;;0.87;0.83;;;13.30;99.90;;;;;;5033546;28;20225;-88
2024/01/24 08:20:09;;;;;;;0.80;0.80;;;14.00;99.90;;;;;;5031185;28;20182;-88
2024/01/24 08:22:35;;;;;;;2.75;1.40;;;13.90;99.90;;;;;;5023298;28;20188;-87
2024/01/24 08:25:02;;;;;;;2.33;0.75;;;13.80;99.90;;;;;;5025089;28;20244;-88
2024/01/24 08:27:28;;;;;;;0.95;0.80;;;14.00;99.90;;;;;;5048071;28;20182;-88
2024/01/24 08:29:53;;;;;;;0.83;0.60;;;13.70;99.90;;;;;;5024215;28;20185;-85
2024/01/24 08:32:19;;;;;;;1.17;0.60;;;13.70;99.90;;;;;;5030283;28;20177;-86
2024/01/24 08:34:45;;;;;;;1.10;0.80;;;14.40;99.90;;;;;;5014801;28;20205;-85
2024/01/24 08:37:12;;;;;;;1.20;0.73;;;14.30;99.90;;;;;;5027868;28;20216;-87
2024/01/24 08:39:39;;;;;;;1.00;0.65;;;14.30;99.90;;;;;;5021425;28;20639;-87
2024/01/24 08:42:05;;;;;;;0.93;0.60;;;13.90;99.90;;;;;;5024540;28;20197;-85
2024/01/24 08:44:30;;;;;;;1.73;0.70;;;14.00;99.90;;;;;;5022286;28;20205;-86
2024/01/24 08:46:56;;;;;;;1.67;0.60;;;14.00;99.90;;;;;;5030584;28;20197;-88
2024/01/24 08:49:21;;;;;;;0.70;0.50;;;14.20;99.90;;;;;;5042291;28;20285;-86
2024/01/24 08:51:47;;;;;;;1.13;0.63;;;14.50;99.90;;;;;;5022528;28;20189;-85
2024/01/24 08:54:13;;;;;;;0.70;0.50;;;14.20;99.90;;;;;;5023536;28;20650;-88
2024/01/24 08:56:39;;;;;;;1.20;0.63;;;14.00;99.90;;;;;;5024135;28;20496;-88
2024/01/24 08:59:04;;;;;;;1.60;1.00;;;14.20;99.90;;;;;;5031628;28;20557;-87
2024/01/24 09:01:30;;;;;;;1.53;0.60;;;14.20;99.90;;;;;;5031137;28;20795;-88
2024/01/24 09:03:56;;;;;;;1.17;0.80;;;14.00;99.90;;;;;;5047649;28;20176;-89
2024/01/24 09:06:22;;;;;;;1.10;0.70;;;14.20;99.90;;;;;;5041852;28;20277;-87
2024/01/24 09:08:54;;;;;;;5.63;0.80;;;14.50;99.90;;;;;;5034049;28;20185;-89
2024/01/24 09:11:20;;;;;;;1.15;0.68;;;14.20;99.90;;;;;;5032137;28;20492;-88
2024/01/24 09:13:47;;;;;;;1.40;0.60;;;14.40;99.90;;;;;;5026761;28;20182;-88
2024/01/24 09:16:13;;;;;;;1.15;0.60;;;14.60;99.90;;;;;;5029474;28;20252;-87
2024/01/24 09:18:40;;;;;;;1.50;0.63;;;14.50;99.90;;;;;;5031358;28;20224;-88
2024/01/24 09:21:06;;;;;;;1.02;0.60;;;14.30;99.90;;;;;;5029637;28;20186;-82
2024/01/24 09:23:31;;;;;;;3.10;0.60;;;14.40;99.90;;;;;;5026572;28;20189;-85
2024/01/24 09:25:57;;;;;;;1.27;0.50;;;14.40;99.90;;;;;;5049361;28;20206;-85
2024/01/24 09:28:23;;;;;;;0.90;0.80;;;14.70;99.90;;;;;;5029836;28;20484;-84
2024/01/24 09:30:48;;;;;;;1.23;0.90;;;14.50;99.90;;;;;;5031668;28;20189;-83
2024/01/24 09:33:14;;;;;;;0.93;0.40;;;14.70;99.90;;;;;;5033396;28;20558;-84
2024/01/24 09:35:40;;;;;;;1.00;0.60;;;15.00;99.90;;;;;;5042844;28;20233;-86
2024/01/24 09:38:06;;;;;;;0.60;0.50;;;14.40;99.90;;;;;;5031999;28;20265;-83
2024/01/24 09:40:32;;;;;;;0.70;0.50;;;14.40;99.90;;;;;;5029797;28;20280;-87
2024/01/24 09:43:01;;;;;;;0.70;0.60;;;15.50;99.90;;;;;;5030101;28;20198;-86
2024/01/24 09:45:28;;;;;;;0.70;0.50;;;14.20;99.90;;;;;;5028354;28;20206;-86
2024/01/24 09:47:57;;;;;;;1.00;0.47;;;14.30;99.90;;;;;;5032070;28;20184;-87
2024/01/24 09:50:23;;;;;;;0.65;0.50;;;14.80;99.90;;;;;;5026495;28;20244;-85
2024/01/24 09:52:50;;;;;;;1.45;0.70;;;14.40;99.90;;;;;;5047193;23;20225;-85
2024/01/24 09:55:18;;;;;;;0.68;0.52;;;14.30;99.90;;;;;;5036774;28;20217;-85
2024/01/24 09:57:44;;;;;;;2.35;0.60;;;14.60;99.90;;;;;;5033598;28;20213;-85
2024/01/24 10:00:11;;;;;;;0.80;0.60;;;14.30;99.90;;;;;;5038095;28;20567;-85
2024/01/24 10:02:37;;;;;;;0.70;0.50;;;14.40;99.90;;;;;;5037415;28;20606;-85
2024/01/24 10:05:07;;;;;;;0.95;0.60;;;14.50;99.90;;;;;;5038466;28;20259;-85
2024/01/24 10:07:33;;;;;;;1.20;0.60;;;14.30;99.90;;;;;;5019482;28;20186;-85
2024/01/24 10:10:15;;;;;;;1.00;0.60;;;14.40;99.90;;;;;;5039190;28;20181;-85
2024/01/24 10:12:45;;;;;;;0.70;0.50;;;14.60;99.90;;;;;;5038571;28;20261;-85
2024/01/24 10:15:13;;;;;;;0.60;0.40;;;15.00;99.90;;;;;;5039747;28;20264;-86
2024/01/24 10:17:44;;;;;;;0.80;0.50;;;15.00;99.90;;;;;;5035415;28;20692;-85
2024/01/24 10:20:11;;;;;;;1.17;0.93;;;15.00;99.90;;;;;;5041750;28;20186;-85
2024/01/24 10:22:39;;;;;;;0.90;0.60;;;14.90;99.90;;;;;;5053420;28;20205;-86
2024/01/24 10:25:06;;;;;;;1.13;0.68;;;14.90;99.90;;;;;;5049247;28;20204;-86
2024/01/24 10:27:34;;;;;;;1.00;0.82;;;15.00;99.90;;;;;;5045532;28;20278;-86
2024/01/24 10:30:00;;;;;;;0.80;0.65;;;15.50;99.90;;;;;;5034991;28;20185;-86
2024/01/24 10:32:25;;;;;;;0.80;0.60;;;15.30;99.90;;;;;;5054411;28;20225;-86
2024/01/24 10:34:52;;;;;;;2.70;0.70;;;15.30;99.90;;;;;;5033770;28;20232;-86
2024/01/24 10:37:18;;;;;;;0.85;0.65;;;15.70;99.90;;;;;;5035381;28;20214;-86
2024/01/24 10:39:44;;;;;;;0.77;0.57;;;15.80;99.90;;;;;;5030237;28;20177;-86
2024/01/24 10:42:13;;;;;;;0.80;0.57;;;15.80;99.90;;;;;;5052970;28;20196;-86
2024/01/24 10:44:44;;;;;;;0.95;0.50;;;16.40;99.90;;;;;;5029664;28;20470;-86
2024/01/24 10:47:10;;;;;;;0.60;0.50;;;16.30;99.90;;;;;;5037304;28;20416;-86
2024/01/24 10:49:37;;;;;;;0.70;0.53;;;15.60;99.90;;;;;;5036497;28;20185;-86
2024/01/24 10:52:04;;;;;;;1.15;0.80;;;16.70;99.90;;;;;;5032219;28;20198;-84
2024/01/24 10:54:34;;;;;;;0.70;0.60;;;16.00;99.90;;;;;;5043816;28;20205;-85
2024/01/24 10:57:02;;;;;;;1.83;0.63;;;17.20;99.90;;;;;;5031420;28;20244;-87
2024/01/24 10:59:31;;;;;;;0.70;0.50;;;15.90;99.90;;;;;;5033227;28;20205;-87
2024/01/24 11:01:57;;;;;;;0.70;0.60;;;16.00;99.90;;;;;;5035123;28;20228;-86
2024/01/24 11:04:24;;;;;;;1.37;0.60;;;16.20;99.90;;;;;;5052050;28;20205;-85
2024/01/24 11:07:07;;;;;;;0.80;0.50;;;15.50;99.90;;;;;;5029815;28;20193;-87
2024/01/24 11:10:10;;;;;;;0.60;0.40;;;15.40;99.90;;;;;;5043256;28;20296;-86
2024/01/24 11:12:36;;;;;;;1.83;0.60;;;15.10;99.90;;;;;;5038895;28;20253;-85
2024/01/24 11:15:06;;;;;;;5.55;1.17;;;15.00;99.90;;;;;;5030638;28;20224;-85
2024/01/24 11:17:32;;;;;;;0.82;0.60;;;14.90;99.90;;;;;;5035766;28;20213;-87
2024/01/24 11:20:07;;;;;;;0.70;0.52;;;14.40;99.90;;;;;;5041027;28;20279;-87
2024/01/24 11:22:32;;;;;;;1.40;1.30;;;14.60;99.90;;;;;;5033769;28;20532;-87
2024/01/24 11:24:59;;;;;;;2.60;1.97;;;15.30;99.90;;;;;;5026612;28;20213;-89
2024/01/24 11:27:33;;;;;;;1.90;0.82;;;14.00;99.90;;;;;;5055492;28;20165;-89
2024/01/24 11:30:16;;;;;;;1.10;0.55;;;13.80;99.90;;;;;;5047146;28;20227;-87
2024/01/24 11:32:47;;;;;;;0.70;0.70;;;13.80;99.90;;;;;;5034429;28;20243;-86
2024/01/24 11:35:32;;;;;;;1.13;0.93;;;14.30;99.90;;;;;;5041888;28;20223;-86
2024/01/24 11:38:20;;;;;;;3.35;2.75;;;14.60;99.90;;;;;;5036858;28;20196;-88
2024/01/24 11:40:47;;;;;;;2.35;0.80;;;14.40;99.90;;;;;;5033791;28;20178;-86
2024/01/24 11:43:25;;;;;;;2.10;0.70;;;14.20;99.90;;;;;;5040469;28;20178;-86
2024/01/24 11:45:54;;;;;;;1.58;1.10;;;14.60;99.90;;;;;;5043250;28;20276;-88
2024/01/24 11:48:20;;;;;;;1.50;1.02;;;14.50;99.90;;;;;;5062177;28;20230;-87
2024/01/24 11:50:52;;;;;;;1.83;1.20;;;14.50;99.90;;;;;;5049026;28;20284;-84
2024/01/24 11:53:18;;;;;;;1.17;1.00;;;14.40;99.90;;;;;;5056810;28;20197;-87
2024/01/24 11:55:54;;;;;;;1.87;1.30;;;14.90;99.90;;;;;;5055661;28;20269;-87
2024/01/24 11:58:28;;;;;;;2.10;1.90;;;15.00;99.90;;;;;;5057355;28;20181;-85
2024/01/24 12:01:04;;;;;;;1.40;1.00;;;14.80;99.90;;;;;;5059908;28;20253;-86
2024/01/24 12:03:31;;;;;;;3.88;1.20;;;14.10;99.90;;;;;;5049180;28;20184;-85
2024/01/24 12:05:58;;;;;;;4.20;1.30;;;14.50;99.90;;;;;;5057425;28;20301;-86
2024/01/24 12:08:24;;;;;;;1.30;1.20;;;14.90;99.90;;;;;;5036070;28;20189;-85
2024/01/24 12:10:50;;;;;;;1.45;0.70;;;14.40;99.90;;;;;;5049954;28;20190;-84
2024/01/24 12:13:16;;;;;;;2.40;1.80;;;14.20;99.90;;;;;;5030919;28;20186;-85
2024/01/24 12:15:43;;;;;;;2.30;0.90;;;14.30;99.90;;;;;;5041730;28;20567;-85
2024/01/24 12:18:18;;;;;;;0.95;0.60;;;14.30;99.90;;;;;;5051366;28;20276;-89
2024/01/24 12:21:08;;;;;;;0.95;0.75;;;14.10;99.90;;;;;;5040809;28;20181;-88
2024/01/24 12:23:34;;;;;;;1.45;0.85;;;13.90;99.90;;;;;;5040552;28;20183;-87
2024/01/24 12:26:07;;;;;;;1.80;1.05;;;13.90;99.90;;;;;;5025116;28;20206;-87
2024/01/24 12:28:34;;;;;;;1.30;0.70;;;13.60;99.90;;;;;;5070268;28;20193;-88
2024/01/24 12:31:03;;;;;;;2.95;0.77;;;14.50;99.90;;;;;;5058526;28;20600;-87
2024/01/24 12:33:32;;;;;;;0.75;0.60;;;14.10;99.90;;;;;;5033507;28;20181;-87
2024/01/24 12:36:10;;;;;;;0.90;0.63;;;14.50;99.90;;;;;;5039312;28;20274;-87
2024/01/24 12:38:37;;;;;;;1.20;0.70;;;14.30;99.90;;;;;;5027586;28;20214;-87
2024/01/24 12:41:04;;;;;;;2.03;0.70;;;14.30;99.90;;;;;;5055542;28;20190;-87
2024/01/24 12:43:30;;;;;;;1.23;1.10;;;14.10;99.90;;;;;;5020171;28;20235;-88
2024/01/24 12:46:03;;;;;;;2.70;1.95;;;14.20;99.90;;;;;;5033962;28;20212;-88
2024/01/24 12:48:29;;;;;;;2.35;1.05;;;14.30;99.90;;;;;;5057886;28;20182;-88